Time;durP1;ratioP1;P1;durP2;ratioP2;P2;SDS_P1;SDS_P2;PMS_P1;PMS_P2;Temp;Humidity;BMP_temperature;BMP_pressure;BME280_temperature;BME280_humidity;BME280_pressure;Samples;Min_cycle;Max_cycle;Signal;HPM_P1;HPM_P2
2021/12/07 00:01:23;;;;;;;8.10;6.25;;;3.10;99.90;;;;;;4995704;28;20030;-56
2021/12/07 00:03:49;;;;;;;9.88;5.85;;;3.10;99.90;;;;;;4995591;28;20045;-51
2021/12/07 00:06:14;;;;;;;10.65;6.57;;;3.10;99.90;;;;;;4995884;28;20058;-52
2021/12/07 00:08:41;;;;;;;9.02;5.78;;;3.10;99.90;;;;;;4994706;28;20045;-56
2021/12/07 00:11:08;;;;;;;8.68;6.18;;;3.00;99.90;;;;;;4995588;28;20046;-53
2021/12/07 00:13:37;;;;;;;8.73;5.82;;;3.10;99.90;;;;;;4995717;28;20033;-54
2021/12/07 00:16:08;;;;;;;8.48;5.68;;;3.10;99.90;;;;;;4994763;28;20015;-53
2021/12/07 00:18:34;;;;;;;13.02;6.43;;;3.10;99.90;;;;;;4994536;28;20165;-56
2021/12/07 00:21:00;;;;;;;7.97;5.82;;;3.10;99.90;;;;;;4992652;28;20037;-57
2021/12/07 00:23:26;;;;;;;8.77;6.13;;;3.10;99.90;;;;;;4994257;28;20026;-57
2021/12/07 00:25:52;;;;;;;8.65;5.68;;;3.10;99.90;;;;;;4994055;28;20417;-52
2021/12/07 00:28:22;;;;;;;7.05;5.30;;;3.10;99.90;;;;;;4994277;28;20025;-54
2021/12/07 00:30:49;;;;;;;9.32;5.85;;;3.10;99.90;;;;;;4994028;28;20027;-52
2021/12/07 00:35:44;;;;;;;7.97;5.72;;;3.00;99.90;;;;;;4993983;28;20034;-56
2021/12/07 00:38:13;;;;;;;7.38;5.43;;;3.00;99.90;;;;;;4994046;28;20324;-54
2021/12/07 00:40:40;;;;;;;8.80;4.70;;;3.00;99.90;;;;;;4993458;28;20424;-55
2021/12/07 00:43:06;;;;;;;6.13;5.05;;;3.00;99.90;;;;;;4993874;28;20081;-54
2021/12/07 00:45:34;;;;;;;6.03;4.50;;;3.00;99.90;;;;;;4992750;28;20018;-56
2021/12/07 00:48:02;;;;;;;7.38;6.00;;;3.00;99.90;;;;;;4993966;28;20499;-57
2021/12/07 00:50:28;;;;;;;5.18;4.32;;;2.90;99.90;;;;;;4993397;28;20023;-56
2021/12/07 00:52:54;;;;;;;5.28;4.40;;;2.90;99.90;;;;;;4993714;28;20014;-57
2021/12/07 00:55:24;;;;;;;6.22;5.40;;;2.90;99.90;;;;;;4993591;28;20030;-56
2021/12/07 00:57:53;;;;;;;6.95;5.18;;;2.80;99.90;;;;;;4993642;28;20441;-56
2021/12/07 01:00:20;;;;;;;6.95;5.80;;;2.80;99.90;;;;;;4993230;28;20026;-54
2021/12/07 01:02:46;;;;;;;6.97;5.82;;;2.80;99.90;;;;;;4993605;28;20033;-54
2021/12/07 01:05:22;;;;;;;8.38;6.10;;;2.80;99.90;;;;;;4993492;28;20023;-52
2021/12/07 01:07:57;;;;;;;9.15;6.70;;;2.70;99.90;;;;;;4993817;28;20110;-57
2021/12/07 01:26:50;;;;;;;10.65;6.80;;;3.00;99.90;;;;;;4993504;28;20033;-52
2021/12/07 01:29:18;;;;;;;8.80;7.15;;;3.10;99.90;;;;;;4992773;28;20500;-54
2021/12/07 01:31:54;;;;;;;11.00;6.63;;;3.10;99.90;;;;;;4992916;28;20037;-53
2021/12/07 01:34:54;;;;;;;7.57;6.55;;;3.10;99.90;;;;;;4992932;28;20459;-54
2021/12/07 01:37:30;;;;;;;8.05;6.10;;;3.10;99.90;;;;;;4992859;28;20117;-57
2021/12/07 01:46:01;;;;;;;8.85;6.00;;;3.10;99.90;;;;;;4992983;28;20073;-54
2021/12/07 01:51:36;;;;;;;9.50;6.05;;;3.20;99.90;;;;;;4992475;28;20101;-55
2021/12/07 01:59:34;;;;;;;9.18;6.68;;;3.30;99.90;;;;;;4992508;28;20088;-50
2021/12/07 02:02:09;;;;;;;7.82;6.45;;;3.30;99.90;;;;;;4992428;28;20026;-54
2021/12/07 02:04:36;;;;;;;7.22;6.28;;;3.30;99.90;;;;;;4992523;28;20030;-55
2021/12/07 02:07:02;;;;;;;5.28;4.78;;;3.40;99.90;;;;;;4991317;28;20057;-53
2021/12/07 02:09:28;;;;;;;6.68;5.55;;;3.40;99.90;;;;;;4990969;28;20507;-56
2021/12/07 02:11:59;;;;;;;11.98;6.00;;;3.50;99.90;;;;;;4991188;28;20052;-56
2021/12/07 02:14:25;;;;;;;7.20;5.82;;;3.50;99.90;;;;;;4991140;28;20023;-52
2021/12/07 02:16:55;;;;;;;9.20;6.05;;;3.40;99.90;;;;;;4992240;28;20058;-50
2021/12/07 02:19:21;;;;;;;6.20;5.30;;;3.40;99.90;;;;;;4992054;28;20107;-56
2021/12/07 02:21:47;;;;;;;6.80;6.10;;;3.40;99.90;;;;;;4992339;28;20034;-54
2021/12/07 02:24:13;;;;;;;7.38;5.57;;;3.30;99.90;;;;;;4992330;28;20388;-51
2021/12/07 02:30:01;;;;;;;9.80;5.88;;;3.40;99.90;;;;;;4991371;28;20033;-52
2021/12/07 02:32:27;;;;;;;5.97;5.38;;;3.40;99.90;;;;;;4992100;28;20023;-55
2021/12/07 02:34:57;;;;;;;6.68;5.30;;;3.40;99.90;;;;;;4992158;28;20096;-54
2021/12/07 02:37:24;;;;;;;6.93;5.85;;;3.40;99.90;;;;;;4992233;28;20452;-54
2021/12/07 02:39:50;;;;;;;5.90;5.40;;;3.40;99.90;;;;;;4990478;28;20030;-55
2021/12/07 02:42:16;;;;;;;6.60;5.93;;;3.40;99.90;;;;;;4990653;28;20200;-55
2021/12/07 02:44:41;;;;;;;7.00;5.85;;;3.30;99.90;;;;;;4991984;28;20109;-56
2021/12/07 02:47:08;;;;;;;7.38;5.25;;;3.40;99.90;;;;;;4991946;28;20027;-54
2021/12/07 02:49:33;;;;;;;8.05;5.95;;;3.40;99.90;;;;;;4990596;28;20110;-54
2021/12/07 02:52:00;;;;;;;7.55;4.97;;;3.40;99.90;;;;;;4991927;28;20110;-56
2021/12/07 02:54:26;;;;;;;7.95;5.53;;;3.40;99.90;;;;;;4991996;28;20022;-51
2021/12/07 02:56:51;;;;;;;6.07;5.00;;;3.40;99.90;;;;;;4990698;28;20034;-53
2021/12/07 02:59:18;;;;;;;7.10;5.45;;;3.50;99.90;;;;;;4991678;28;20028;-52
2021/12/07 03:01:50;;;;;;;6.00;5.00;;;3.40;99.90;;;;;;4990698;28;20064;-51
2021/12/07 03:04:25;;;;;;;7.88;4.68;;;3.50;99.90;;;;;;4993269;28;20081;-52
2021/12/07 03:07:13;;;;;;;5.75;4.75;;;3.60;99.90;;;;;;4995823;28;20456;-50
2021/12/07 03:10:12;;;;;;;6.43;4.57;;;3.60;99.90;;;;;;4993912;28;20034;-55
2021/12/07 03:26:15;;;;;;;5.72;3.40;;;3.80;99.90;;;;;;4995313;28;20415;-53
2021/12/07 03:28:44;;;;;;;5.10;3.90;;;3.90;99.90;;;;;;4995541;28;20015;-55
2021/12/07 03:31:13;;;;;;;4.95;3.95;;;3.90;99.90;;;;;;4994923;28;20052;-54
2021/12/07 03:33:39;;;;;;;4.53;4.05;;;3.90;99.90;;;;;;4995118;28;20035;-51
2021/12/07 03:36:06;;;;;;;5.70;4.65;;;3.90;99.90;;;;;;4995210;28;20101;-53
2021/12/07 03:38:32;;;;;;;4.53;3.25;;;3.90;99.90;;;;;;4994874;28;20041;-52
2021/12/07 03:40:58;;;;;;;4.38;3.10;;;3.90;99.90;;;;;;4994533;28;20049;-54
2021/12/07 03:43:24;;;;;;;6.30;3.58;;;4.00;99.90;;;;;;4993588;28;20041;-54
2021/12/07 03:45:49;;;;;;;9.18;3.10;;;4.00;99.90;;;;;;4993753;28;20112;-54
2021/12/07 03:48:16;;;;;;;5.70;2.55;;;4.20;99.90;;;;;;4994906;28;20037;-52
2021/12/07 03:50:41;;;;;;;3.63;1.98;;;4.20;99.90;;;;;;4994780;28;20578;-56
2021/12/07 03:53:08;;;;;;;4.45;2.30;;;4.40;99.90;;;;;;4994879;28;20022;-52
2021/12/07 03:55:33;;;;;;;3.33;2.10;;;4.40;99.90;;;;;;4994833;28;20026;-56
2021/12/07 03:57:59;;;;;;;4.55;1.88;;;4.40;99.90;;;;;;4994907;28;20443;-53
2021/12/07 04:00:28;;;;;;;6.93;2.05;;;4.50;99.90;;;;;;4993112;28;20026;-55
2021/12/07 04:02:54;;;;;;;3.15;1.77;;;4.60;99.90;;;;;;4994584;28;20143;-58
2021/12/07 04:05:22;;;;;;;3.00;1.88;;;4.50;99.90;;;;;;4993281;28;20449;-55
2021/12/07 04:07:49;;;;;;;3.35;1.73;;;4.60;99.90;;;;;;4994660;28;20022;-56
2021/12/07 04:10:18;;;;;;;9.27;2.20;;;4.70;99.90;;;;;;4993992;28;20034;-55
2021/12/07 04:12:44;;;;;;;6.00;2.40;;;4.70;99.90;;;;;;4993336;28;20415;-54
2021/12/07 04:15:12;;;;;;;5.90;1.70;;;4.70;99.90;;;;;;4993722;28;20026;-57
2021/12/07 04:17:37;;;;;;;2.47;1.60;;;4.80;99.90;;;;;;4994341;28;20397;-53
2021/12/07 04:20:06;;;;;;;3.72;1.40;;;4.90;99.90;;;;;;4994098;28;20030;-52
2021/12/07 04:22:32;;;;;;;7.82;1.38;;;4.90;99.90;;;;;;4992983;28;20034;-55
2021/12/07 04:24:57;;;;;;;8.63;1.80;;;4.90;99.90;;;;;;4992886;28;20057;-52
2021/12/07 04:27:23;;;;;;;5.30;1.63;;;5.00;99.90;;;;;;4994195;28;20488;-51
2021/12/07 04:29:48;;;;;;;3.90;1.58;;;5.00;99.90;;;;;;4992590;28;20286;-55
2021/12/07 04:32:14;;;;;;;4.60;2.17;;;5.00;99.90;;;;;;4992767;28;20484;-54
2021/12/07 04:34:40;;;;;;;4.13;1.63;;;4.90;99.90;;;;;;4992887;28;20030;-51
2021/12/07 04:37:06;;;;;;;4.38;1.73;;;4.90;99.90;;;;;;4992828;28;20037;-55
2021/12/07 04:39:31;;;;;;;6.43;1.95;;;4.90;99.90;;;;;;4993446;28;20030;-54
2021/12/07 04:41:57;;;;;;;3.08;1.30;;;5.00;99.90;;;;;;4993718;28;20034;-53
2021/12/07 04:44:23;;;;;;;5.50;1.70;;;5.00;99.90;;;;;;4994132;28;20113;-54
2021/12/07 04:47:05;;;;;;;2.92;2.03;;;5.00;99.90;;;;;;4994245;28;20046;-50
2021/12/07 04:50:07;;;;;;;4.78;1.80;;;5.10;99.90;;;;;;4993784;28;20026;-57
2021/12/07 04:57:48;;;;;;;5.18;2.00;;;5.00;99.90;;;;;;4993539;28;20099;-52
2021/12/07 05:00:26;;;;;;;6.55;1.90;;;5.10;99.90;;;;;;4991811;28;20108;-53
2021/12/07 05:03:13;;;;;;;9.52;1.77;;;5.10;99.90;;;;;;4993323;28;20492;-50
2021/12/07 05:05:44;;;;;;;8.23;1.40;;;5.10;99.90;;;;;;4993501;28;20404;-52
2021/12/07 05:08:14;;;;;;;5.30;1.63;;;5.00;99.90;;;;;;4993494;28;20484;-51
2021/12/07 05:39:55;;;;;;;4.22;1.50;;;5.00;99.90;;;;;;4992689;28;20631;-54
2021/12/07 05:42:23;;;;;;;2.35;1.30;;;5.00;99.90;;;;;;4991394;28;20030;-52
2021/12/07 05:44:48;;;;;;;4.95;1.55;;;5.10;99.90;;;;;;4992787;28;20030;-54
2021/12/07 05:47:14;;;;;;;8.18;2.00;;;5.00;99.90;;;;;;4992793;28;20484;-57
2021/12/07 05:49:39;;;;;;;7.18;1.92;;;5.10;99.90;;;;;;4993487;28;20105;-57
2021/12/07 05:52:05;;;;;;;9.63;2.65;;;5.10;99.90;;;;;;4991459;28;20373;-53
2021/12/07 05:54:31;;;;;;;10.45;1.95;;;5.10;99.90;;;;;;4991336;28;20045;-57
2021/12/07 05:56:56;;;;;;;7.40;1.90;;;5.10;99.90;;;;;;4991149;28;20564;-55
2021/12/07 05:59:22;;;;;;;5.40;1.50;;;5.10;99.90;;;;;;4990854;28;20037;-53
2021/12/07 06:01:47;;;;;;;4.88;1.90;;;5.10;99.90;;;;;;4991196;28;20501;-52
2021/12/07 06:04:13;;;;;;;6.80;1.42;;;5.00;99.90;;;;;;4991569;28;20436;-55
2021/12/07 06:06:39;;;;;;;7.57;2.30;;;5.10;99.90;;;;;;4991315;28;20030;-57
2021/12/07 06:09:05;;;;;;;8.18;1.73;;;5.10;99.90;;;;;;4992385;28;20026;-53
2021/12/07 06:11:31;;;;;;;3.20;1.67;;;5.00;99.90;;;;;;4990781;28;20165;-54
2021/12/07 06:13:56;;;;;;;19.02;4.30;;;5.10;99.90;;;;;;4992318;28;20049;-55
2021/12/07 06:16:24;;;;;;;9.48;2.42;;;5.00;99.90;;;;;;4992297;28;20041;-56
2021/12/07 06:18:50;;;;;;;9.32;2.65;;;5.10;99.90;;;;;;4990986;28;20026;-55
2021/12/07 06:21:15;;;;;;;6.60;2.30;;;5.00;99.90;;;;;;4991818;28;20026;-55
2021/12/07 06:23:41;;;;;;;2.35;1.45;;;5.00;99.90;;;;;;4992127;28;20045;-55
2021/12/07 06:26:08;;;;;;;4.32;1.65;;;5.00;99.90;;;;;;4992517;28;20477;-51
2021/12/07 06:28:33;;;;;;;3.72;1.80;;;5.00;99.90;;;;;;4992146;28;20030;-54
2021/12/07 06:30:59;;;;;;;5.47;1.50;;;5.00;99.90;;;;;;4991901;28;20018;-50
2021/12/07 06:33:25;;;;;;;6.93;1.67;;;4.90;99.90;;;;;;4992450;28;20031;-53
2021/12/07 06:35:57;;;;;;;6.45;2.05;;;4.90;99.90;;;;;;4992037;28;20019;-50
2021/12/07 06:38:24;;;;;;;4.38;1.63;;;4.90;99.90;;;;;;4993095;28;20026;-52
2021/12/07 06:40:50;;;;;;;3.92;1.70;;;4.90;99.90;;;;;;4994228;28;20033;-54
2021/12/07 06:43:15;;;;;;;4.22;1.92;;;4.90;99.90;;;;;;4995879;28;20022;-52
2021/12/07 06:45:41;;;;;;;4.28;1.60;;;4.80;99.90;;;;;;4995788;28;20022;-52
2021/12/07 06:48:07;;;;;;;2.90;1.42;;;4.80;99.90;;;;;;4995902;28;20026;-52
2021/12/07 06:50:34;;;;;;;3.58;1.83;;;4.80;99.90;;;;;;4995269;28;20033;-53
2021/12/07 06:52:59;;;;;;;4.43;1.90;;;4.70;99.90;;;;;;4995894;28;20026;-50
2021/12/07 06:55:25;;;;;;;5.60;2.08;;;4.70;99.90;;;;;;4994446;28;20084;-53
2021/12/07 06:57:50;;;;;;;3.85;1.58;;;4.70;99.90;;;;;;4995755;28;20514;-55
2021/12/07 07:00:18;;;;;;;5.63;2.13;;;4.70;99.90;;;;;;4995338;28;20111;-54
2021/12/07 07:02:44;;;;;;;9.95;2.13;;;4.70;99.90;;;;;;4995636;28;20034;-53
2021/12/07 07:05:10;;;;;;;7.05;1.75;;;4.70;99.90;;;;;;4995555;28;20041;-55
2021/12/07 07:07:36;;;;;;;7.13;2.03;;;4.70;99.90;;;;;;4995518;28;20101;-53
2021/12/07 07:10:03;;;;;;;8.68;1.90;;;4.80;99.90;;;;;;4995378;28;20158;-51
2021/12/07 07:12:29;;;;;;;10.02;2.38;;;4.80;99.90;;;;;;4995441;28;20432;-51
2021/12/07 07:14:55;;;;;;;3.13;1.30;;;4.80;99.90;;;;;;4995626;28;20116;-52
2021/12/07 07:17:20;;;;;;;7.70;1.58;;;4.80;99.90;;;;;;4995672;28;20389;-57
2021/12/07 07:19:46;;;;;;;5.65;1.65;;;4.80;99.90;;;;;;4995562;28;20401;-56
2021/12/07 07:22:11;;;;;;;5.15;1.48;;;4.90;99.90;;;;;;4995669;28;20035;-54
2021/12/07 07:24:37;;;;;;;4.88;1.92;;;4.90;99.90;;;;;;4995877;28;20028;-54
2021/12/07 07:27:04;;;;;;;5.97;2.60;;;4.90;99.90;;;;;;4995780;28;20424;-54
2021/12/07 07:29:29;;;;;;;8.27;2.65;;;4.90;99.90;;;;;;4995178;28;20400;-54
2021/12/07 07:31:55;;;;;;;7.03;2.38;;;5.00;99.90;;;;;;4995445;28;20027;-57
2021/12/07 07:34:21;;;;;;;8.18;3.03;;;5.00;99.90;;;;;;4995256;28;20058;-52
2021/12/07 07:36:46;;;;;;;6.55;2.38;;;5.00;99.90;;;;;;4995303;28;20023;-51
2021/12/07 07:39:12;;;;;;;10.15;3.25;;;5.00;99.90;;;;;;4994243;28;20033;-53
2021/12/07 07:41:38;;;;;;;10.25;2.78;;;5.00;99.90;;;;;;4994839;28;20092;-56
2021/12/07 07:44:05;;;;;;;6.57;2.15;;;4.90;99.90;;;;;;4994702;28;20396;-53
2021/12/07 07:46:30;;;;;;;5.03;1.40;;;4.90;99.90;;;;;;4994868;28;20022;-54
2021/12/07 07:48:56;;;;;;;10.00;1.95;;;4.90;99.90;;;;;;4994670;28;20023;-54
2021/12/07 07:51:21;;;;;;;4.78;2.53;;;4.80;99.90;;;;;;4993490;28;20033;-51
2021/12/07 07:53:48;;;;;;;6.68;1.95;;;4.90;99.90;;;;;;4994819;28;20026;-52
2021/12/07 07:56:14;;;;;;;7.07;2.33;;;4.90;99.90;;;;;;4994679;28;20026;-57
2021/12/07 07:58:39;;;;;;;5.05;2.08;;;5.00;99.90;;;;;;4994528;28;20037;-55
2021/12/07 08:01:05;;;;;;;7.00;2.05;;;5.00;99.90;;;;;;4994285;28;20026;-55
2021/12/07 08:03:31;;;;;;;9.00;2.92;;;5.10;99.90;;;;;;4994601;28;20463;-53
2021/12/07 08:05:56;;;;;;;22.85;3.60;;;5.10;99.90;;;;;;4994659;28;20033;-57
2021/12/07 08:08:22;;;;;;;3.65;2.00;;;5.10;99.90;;;;;;4994332;28;20069;-53
2021/12/07 08:10:48;;;;;;;9.70;1.95;;;5.10;99.90;;;;;;4995115;28;20034;-46
2021/12/07 08:13:14;;;;;;;5.90;3.03;;;5.20;99.90;;;;;;5003816;28;20477;-51
2021/12/07 08:15:43;;;;;;;10.98;1.75;;;5.10;99.90;;;;;;5011398;28;20026;-52
2021/12/07 08:18:12;;;;;;;11.00;2.58;;;5.10;99.90;;;;;;5013933;28;20104;-49
2021/12/07 08:20:39;;;;;;;6.70;1.67;;;5.20;99.90;;;;;;5013380;28;20072;-55
2021/12/07 08:23:05;;;;;;;4.72;1.63;;;5.30;99.90;;;;;;5014199;28;20026;-49
2021/12/07 08:25:33;;;;;;;5.05;1.92;;;5.30;99.90;;;;;;5012758;28;20034;-53
2021/12/07 08:27:59;;;;;;;7.65;2.03;;;5.30;99.90;;;;;;5013706;28;20406;-51
2021/12/07 08:30:25;;;;;;;5.30;2.38;;;5.30;99.90;;;;;;5012995;28;20037;-49
2021/12/07 08:32:50;;;;;;;5.75;1.45;;;5.30;99.90;;;;;;5012536;28;20040;-50
2021/12/07 08:35:17;;;;;;;4.25;2.08;;;5.30;99.90;;;;;;5005838;28;20032;-56
2021/12/07 08:37:44;;;;;;;4.75;1.85;;;5.40;99.90;;;;;;5011797;28;20065;-53
2021/12/07 08:40:11;;;;;;;5.40;2.08;;;5.40;99.90;;;;;;5012945;28;20488;-54
2021/12/07 08:42:37;;;;;;;4.30;1.75;;;5.50;99.90;;;;;;5013348;28;20042;-57
2021/12/07 08:45:05;;;;;;;2.15;1.92;;;5.70;99.90;;;;;;5013140;28;20091;-56
2021/12/07 08:47:31;;;;;;;8.02;2.38;;;6.30;99.90;;;;;;5013104;28;20040;-56
2021/12/07 08:49:57;;;;;;;6.55;2.20;;;7.10;99.90;;;;;;5013063;28;20116;-56
2021/12/07 08:52:23;;;;;;;8.10;3.50;;;7.50;99.90;;;;;;5013187;28;20054;-54
2021/12/07 08:59:59;;;;;;;5.82;1.73;;;6.40;99.90;;;;;;5012786;28;20500;-54
2021/12/07 09:02:26;;;;;;;6.25;1.77;;;6.20;99.90;;;;;;5011463;28;20117;-53
2021/12/07 09:04:53;;;;;;;2.90;1.45;;;6.00;99.90;;;;;;5013101;28;20078;-52
2021/12/07 09:07:21;;;;;;;6.78;1.90;;;6.00;99.90;;;;;;5011720;28;20045;-54
2021/12/07 09:09:47;;;;;;;13.82;2.78;;;5.90;99.90;;;;;;5012735;28;20049;-55
2021/12/07 09:12:15;;;;;;;5.78;1.77;;;5.90;99.90;;;;;;5013242;28;20068;-55
2021/12/07 09:14:42;;;;;;;7.35;2.13;;;5.80;99.90;;;;;;5013013;28;20022;-55
2021/12/07 09:17:08;;;;;;;6.43;2.17;;;5.80;99.90;;;;;;5013163;28;20022;-52
2021/12/07 09:19:34;;;;;;;8.88;3.35;;;5.80;99.90;;;;;;5012420;28;20025;-51
2021/12/07 09:22:00;;;;;;;14.80;2.45;;;5.70;99.90;;;;;;5012513;28;20534;-51
2021/12/07 09:24:26;;;;;;;11.27;2.53;;;5.70;99.90;;;;;;5012592;28;20026;-50
2021/12/07 09:26:53;;;;;;;5.22;1.80;;;5.70;99.90;;;;;;5012496;28;20025;-52
2021/12/07 09:29:19;;;;;;;6.70;1.85;;;5.60;99.90;;;;;;5012390;28;20041;-51
2021/12/07 09:31:45;;;;;;;6.75;2.42;;;5.60;99.90;;;;;;5012450;28;20022;-55
2021/12/07 09:34:11;;;;;;;8.68;1.75;;;5.60;99.90;;;;;;5012561;28;20103;-54
2021/12/07 09:36:42;;;;;;;5.03;2.00;;;5.60;99.90;;;;;;5012508;28;20029;-54
2021/12/07 09:39:12;;;;;;;6.82;3.58;;;5.50;99.90;;;;;;5010773;28;20117;-49
2021/12/07 09:41:38;;;;;;;8.50;3.05;;;5.50;99.90;;;;;;5012215;28;20116;-52
2021/12/07 09:44:05;;;;;;;4.13;1.85;;;5.50;99.90;;;;;;5011986;28;20491;-57
2021/12/07 09:46:31;;;;;;;6.65;2.30;;;5.50;99.90;;;;;;5010149;28;20495;-49
2021/12/07 09:48:56;;;;;;;9.18;2.38;;;5.50;99.90;;;;;;5002517;28;20024;-53
2021/12/07 09:51:24;;;;;;;7.55;2.13;;;5.60;99.90;;;;;;4992321;28;20037;-52
2021/12/07 09:53:52;;;;;;;7.88;3.03;;;5.60;99.90;;;;;;5009473;28;20037;-51
2021/12/07 09:56:18;;;;;;;14.15;3.15;;;5.60;99.90;;;;;;5002838;28;20403;-51
2021/12/07 09:58:46;;;;;;;7.75;2.40;;;5.70;99.90;;;;;;5011584;28;20042;-51
2021/12/07 10:01:12;;;;;;;3.88;2.13;;;5.70;99.90;;;;;;4991977;28;20022;-53
2021/12/07 10:03:39;;;;;;;7.63;3.05;;;5.70;99.90;;;;;;5006943;28;20084;-51
2021/12/07 10:06:05;;;;;;;7.18;1.83;;;5.70;99.90;;;;;;5010848;28;20399;-50
2021/12/07 10:08:31;;;;;;;7.57;2.97;;;5.70;99.90;;;;;;5002997;28;20092;-53
2021/12/07 10:10:59;;;;;;;15.13;2.22;;;5.70;99.90;;;;;;5000928;28;20034;-49
2021/12/07 10:13:28;;;;;;;6.07;2.05;;;5.70;99.90;;;;;;4991756;28;20389;-52
2021/12/07 10:15:55;;;;;;;3.47;1.70;;;5.70;99.90;;;;;;5010004;28;20093;-53
2021/12/07 10:18:26;;;;;;;7.38;2.08;;;5.70;99.90;;;;;;5010425;28;20030;-54
2021/12/07 10:20:55;;;;;;;6.32;1.75;;;5.70;99.90;;;;;;4991742;28;20027;-49
2021/12/07 10:23:21;;;;;;;7.38;1.60;;;5.70;99.90;;;;;;4994178;28;20029;-52
2021/12/07 10:25:54;;;;;;;7.07;2.92;;;5.80;99.90;;;;;;5011377;28;20022;-55
2021/12/07 10:28:36;;;;;;;11.90;2.63;;;5.80;99.90;;;;;;5011407;28;20030;-55
2021/12/07 10:31:10;;;;;;;13.07;2.63;;;5.80;99.90;;;;;;5011559;28;20022;-54
2021/12/07 10:33:46;;;;;;;4.60;2.00;;;5.80;99.90;;;;;;5011527;28;20120;-53
2021/12/07 10:36:35;;;;;;;8.95;2.00;;;5.90;99.90;;;;;;5010543;28;20022;-49
2021/12/07 10:39:08;;;;;;;29.80;13.93;;;5.90;99.90;;;;;;5010772;28;20041;-55
2021/12/07 10:41:40;;;;;;;12.23;4.13;;;5.90;99.90;;;;;;5010021;28;20030;-49
2021/12/07 10:44:06;;;;;;;7.90;2.10;;;6.00;99.90;;;;;;5001199;28;20073;-52
2021/12/07 10:46:37;;;;;;;8.13;2.42;;;6.10;99.90;;;;;;5009980;28;20592;-50
2021/12/07 10:49:20;;;;;;;12.57;2.45;;;6.00;99.90;;;;;;5011005;28;20034;-55
2021/12/07 10:52:04;;;;;;;10.10;1.90;;;6.10;99.90;;;;;;5009905;28;20022;-49
2021/12/07 10:54:37;;;;;;;9.50;2.40;;;6.10;99.90;;;;;;5011232;28;20037;-48
2021/12/07 10:57:05;;;;;;;12.55;2.67;;;6.10;99.90;;;;;;5011272;28;20049;-48
2021/12/07 10:59:32;;;;;;;6.70;2.58;;;6.30;99.90;;;;;;5011385;28;20022;-50
2021/12/07 11:01:59;;;;;;;13.13;2.83;;;6.30;99.90;;;;;;5005387;28;20080;-53
2021/12/07 11:04:26;;;;;;;9.20;3.03;;;6.40;99.90;;;;;;5001281;28;20126;-52
2021/12/07 11:07:15;;;;;;;9.38;2.28;;;6.50;99.90;;;;;;4998433;28;20010;-55
2021/12/07 11:09:45;;;;;;;4.68;2.00;;;6.50;99.90;;;;;;5010156;28;20022;-58
2021/12/07 11:12:14;;;;;;;8.75;2.47;;;6.60;99.90;;;;;;5009463;28;20025;-54
2021/12/07 11:14:49;;;;;;;7.78;2.22;;;6.60;99.90;;;;;;5010488;28;20026;-57
2021/12/07 11:17:17;;;;;;;11.40;1.92;;;6.60;99.90;;;;;;5008873;28;20045;-54
2021/12/07 11:19:43;;;;;;;5.90;2.13;;;6.70;99.90;;;;;;5010354;28;20037;-57
2021/12/07 11:22:13;;;;;;;12.82;3.90;;;6.90;99.90;;;;;;5010634;28;20519;-54
2021/12/07 11:24:43;;;;;;;3.75;1.50;;;6.90;99.90;;;;;;5011517;28;20026;-56
2021/12/07 11:29:58;;;;;;;6.72;1.77;;;6.90;99.90;;;;;;5011645;28;20578;-54
2021/12/07 11:32:24;;;;;;;4.85;1.98;;;7.00;99.90;;;;;;4999069;28;20030;-54
2021/12/07 11:34:49;;;;;;;6.38;1.30;;;6.90;99.90;;;;;;4995893;28;20468;-56
2021/12/07 11:37:15;;;;;;;4.43;1.30;;;7.00;99.90;;;;;;5012643;28;20065;-54
2021/12/07 11:39:50;;;;;;;4.85;1.65;;;7.00;99.90;;;;;;5002388;28;20026;-53
2021/12/07 11:42:23;;;;;;;10.73;2.43;;;6.90;99.90;;;;;;4998280;28;20033;-55
2021/12/07 11:44:55;;;;;;;8.23;1.33;;;7.00;99.90;;;;;;5005877;28;20289;-55
2021/12/07 11:47:35;;;;;;;12.70;2.28;;;6.90;99.90;;;;;;4994895;28;20030;-55
2021/12/07 11:50:12;;;;;;;6.47;1.27;;;6.80;99.90;;;;;;5032414;23;20504;-47
2021/12/07 11:52:37;;;;;;;4.13;1.50;;;6.90;99.90;;;;;;5014311;28;20392;-49
2021/12/07 11:55:04;;;;;;;10.88;2.08;;;6.80;99.90;;;;;;5014473;28;20034;-45
2021/12/07 11:57:29;;;;;;;7.38;1.80;;;6.70;99.90;;;;;;5012858;28;20037;-43
2021/12/07 11:59:55;;;;;;;7.40;1.60;;;6.70;99.90;;;;;;5013383;28;20032;-46
2021/12/07 12:02:22;;;;;;;5.32;1.63;;;6.70;99.90;;;;;;4997644;28;20155;-45
2021/12/07 12:04:48;;;;;;;5.10;1.30;;;6.80;99.90;;;;;;5021714;28;20462;-44
2021/12/07 12:07:14;;;;;;;9.25;2.15;;;6.80;99.90;;;;;;5023005;28;20041;-43
2021/12/07 12:09:50;;;;;;;7.07;2.00;;;6.80;99.90;;;;;;5014310;28;20450;-47
2021/12/07 12:12:33;;;;;;;5.93;1.55;;;6.80;99.90;;;;;;5014332;28;20089;-47
2021/12/07 12:15:45;;;;;;;6.60;1.67;;;6.80;99.90;;;;;;5017821;28;20022;-46
2021/12/07 12:18:26;;;;;;;6.95;1.55;;;6.70;99.90;;;;;;5032296;28;20038;-47
2021/12/07 12:21:11;;;;;;;2.28;1.52;;;6.70;99.90;;;;;;5013625;28;20492;-45
2021/12/07 12:24:10;;;;;;;6.32;1.80;;;6.70;99.90;;;;;;5000440;28;20137;-45
2021/12/07 12:26:36;;;;;;;11.00;1.92;;;6.70;99.90;;;;;;5009470;28;20056;-44
2021/12/07 12:29:15;;;;;;;7.00;1.70;;;6.70;99.90;;;;;;5013292;28;20026;-45
2021/12/07 12:32:02;;;;;;;10.80;2.00;;;6.60;99.90;;;;;;5012126;28;20442;-47
2021/12/07 12:34:31;;;;;;;9.85;1.67;;;6.60;99.90;;;;;;5013006;28;20026;-44
2021/12/07 12:37:05;;;;;;;7.13;1.52;;;6.60;99.90;;;;;;5011406;28;20029;-46
2021/12/07 12:39:52;;;;;;;7.93;1.95;;;6.60;99.90;;;;;;5013307;28;20080;-49
2021/12/07 12:42:33;;;;;;;5.65;1.60;;;6.60;99.90;;;;;;5013302;28;20030;-46
2021/12/07 12:45:10;;;;;;;31.35;15.73;;;6.60;99.90;;;;;;5013614;28;20029;-48
2021/12/07 12:47:39;;;;;;;18.02;6.55;;;6.60;99.90;;;;;;5013348;28;20018;-44
2021/12/07 12:50:15;;;;;;;8.52;3.38;;;6.50;99.90;;;;;;5012462;28;20124;-41
2021/12/07 12:53:03;;;;;;;11.32;2.22;;;6.60;99.90;;;;;;5013646;28;20099;-47
2021/12/07 12:55:39;;;;;;;7.75;1.58;;;6.60;99.90;;;;;;5013768;28;20057;-44
2021/12/07 12:58:16;;;;;;;4.85;2.20;;;6.60;99.90;;;;;;5013237;28;20022;-45
2021/12/07 13:01:04;;;;;;;9.32;2.10;;;6.60;99.90;;;;;;5012584;28;20030;-44
2021/12/07 13:03:53;;;;;;;7.55;1.90;;;6.60;99.90;;;;;;5013160;28;20030;-46
2021/12/07 13:06:48;;;;;;;3.60;1.65;;;6.70;99.90;;;;;;5012955;28;20025;-47
2021/12/07 13:09:19;;;;;;;9.73;1.80;;;6.70;99.90;;;;;;5012564;28;20531;-46
2021/12/07 13:11:50;;;;;;;8.18;1.67;;;6.80;99.90;;;;;;5012629;28;20033;-46
2021/12/07 13:14:21;;;;;;;9.70;2.05;;;6.70;99.90;;;;;;5012841;28;20029;-45
2021/12/07 13:16:49;;;;;;;2.53;1.70;;;6.70;99.90;;;;;;5012772;28;20037;-45
2021/12/07 13:19:14;;;;;;;4.15;1.70;;;6.80;99.90;;;;;;5012491;28;20091;-46
2021/12/07 13:21:43;;;;;;;9.27;2.20;;;6.80;99.90;;;;;;5012454;28;20120;-46
2021/12/07 13:24:15;;;;;;;5.72;2.10;;;6.80;99.90;;;;;;5012616;28;20022;-48
2021/12/07 13:26:51;;;;;;;3.95;1.85;;;6.80;99.90;;;;;;5012806;28;20018;-45
2021/12/07 13:29:20;;;;;;;8.00;2.13;;;6.80;99.90;;;;;;5011891;28;20030;-44
2021/12/07 13:31:51;;;;;;;11.90;1.73;;;6.80;99.90;;;;;;5012707;28;20014;-47
2021/12/07 13:34:23;;;;;;;8.10;2.03;;;6.90;99.90;;;;;;5012557;28;20032;-50
2021/12/07 13:36:58;;;;;;;12.45;2.10;;;7.00;99.90;;;;;;5012748;28;20030;-46
2021/12/07 13:39:24;;;;;;;7.18;1.98;;;7.00;99.90;;;;;;5011925;28;20030;-46
2021/12/07 13:42:18;;;;;;;6.00;2.22;;;7.10;99.90;;;;;;5012490;28;20037;-45
2021/12/07 13:44:56;;;;;;;4.50;1.98;;;7.20;99.90;;;;;;5011313;28;20399;-44
2021/12/07 13:47:28;;;;;;;8.98;1.95;;;7.10;99.90;;;;;;5012280;28;20080;-44
2021/12/07 13:50:00;;;;;;;7.68;2.20;;;7.10;99.90;;;;;;5011825;28;20026;-44
2021/12/07 13:52:30;;;;;;;5.57;1.60;;;7.00;99.90;;;;;;5012266;28;20040;-44
2021/12/07 13:54:58;;;;;;;9.43;2.38;;;7.00;99.90;;;;;;5012052;28;20140;-46
2021/12/07 13:57:30;;;;;;;6.88;2.20;;;7.00;99.90;;;;;;5012191;28;20030;-47
2021/12/07 13:59:58;;;;;;;7.18;1.75;;;7.00;99.90;;;;;;5011650;28;20026;-47
2021/12/07 14:02:25;;;;;;;9.65;2.28;;;6.90;99.90;;;;;;5011818;28;20081;-45
2021/12/07 14:05:00;;;;;;;14.98;4.38;;;6.90;99.90;;;;;;5012066;28;20022;-47
2021/12/07 14:07:25;;;;;;;5.57;1.83;;;6.80;99.90;;;;;;5012125;28;20021;-48
2021/12/07 14:09:52;;;;;;;6.40;1.92;;;6.80;99.90;;;;;;5011745;28;20033;-44
2021/12/07 14:12:22;;;;;;;6.68;2.55;;;6.80;99.90;;;;;;5012327;28;20024;-44
2021/12/07 14:14:47;;;;;;;11.73;3.55;;;6.80;99.90;;;;;;5011369;28;20041;-45
2021/12/07 14:17:13;;;;;;;7.22;2.70;;;6.80;99.90;;;;;;5011730;28;20025;-47
2021/12/07 14:19:38;;;;;;;9.57;2.08;;;6.70;99.90;;;;;;5009300;28;20100;-46
2021/12/07 14:22:04;;;;;;;7.40;2.17;;;6.70;99.90;;;;;;5014346;28;20026;-45
2021/12/07 14:24:30;;;;;;;6.72;2.38;;;6.70;99.90;;;;;;5018409;28;20062;-43
2021/12/07 14:26:55;;;;;;;10.38;2.22;;;6.70;99.90;;;;;;5024498;28;20521;-48
2021/12/07 14:29:25;;;;;;;10.18;2.20;;;6.70;99.90;;;;;;5011421;28;20420;-45
2021/12/07 14:31:57;;;;;;;5.10;1.83;;;6.70;99.90;;;;;;5010653;28;20037;-47
2021/12/07 14:34:31;;;;;;;6.20;1.67;;;6.60;99.90;;;;;;5016094;28;20250;-41
2021/12/07 14:37:06;;;;;;;9.32;2.20;;;6.60;99.90;;;;;;5011780;28;20041;-45
2021/12/07 14:39:37;;;;;;;4.25;2.28;;;6.50;99.90;;;;;;5011162;28;20065;-48